Half Day, Illinois
Current Conditions -  °F | °C
As of 2:52 AM on Wednesday 26 Nov 2014 (Local Time) from KPWK Reporting Station
Overcast Overcast  
Wind Chill: -7°   Ceiling: 1100
Heat Index: -7°   Visibility: 7mi
Dew Point: -9°   Wind: 0mph
Humidity: 85%   Direction: NA
Pressure: 30.2"   Gusts: NA
Location:  42.1941°N, 87.9317°W
Report Text: KPWK 260852Z AUTO 00000KT 7SM OVC011 M07/M09 A3020 RMK AO2 SLP235 T10671089 50001
Loading
Personal Weather Stations






























Interactive Weather Map New forecast layout! Learn more

10-Day Weather Forecast

Advertisements
Track Severe Weather on mobile